Terminal Aerodrome Forecast
Issued by NWS

Home | Current Version | Previous Version | Text Only | Print | Product List | Glossary On
Versions: 1 2 3 4 5 6 7 8 9 10 11 12
000
FTUS43 KICT 181100 RRA
TAFSLN
TAF
KSLN 181142Z 1812/1912 17006KT P6SM SKC
      TEMPO 1812/1814 3SM BR
     FM181500 17011KT P6SM FEW030
     FM181800 18016G23KT P6SM SCT035
     FM190100 16013KT P6SM SCT040=

USA.gov is the U.S. government's official web portal to all federal, state and local government web resources and services.